< Typhoon 198126 1981 Season Typhoon 198128 >
Typhoon 198127 (JEFF)
General InformationTrack Information on Google MapsDetailed Wind InformationList of All Images || Disaster Info.ResourceGoogle EarthGE AnimationAtom FeedGeoJSON
Detalied Best Track (Time Zone = UTC)
Year Month Day Hour Lat. Long. Pressure (hPa) Wind (kt) Class Image Chart
1981 11 20 06 8.0 158.0 1004 0 2 Image Chart
1981 11 20 12 8.0 156.0 1004 0 2 Image Chart
1981 11 20 18 9.0 155.0 1004 0 2 Image Chart
1981 11 21 00 10.5 153.5 1004 0 2 Image Chart
1981 11 21 06 11.6 152.3 1000 0 2 Image Chart
1981 11 21 12 12.3 151.6 1000 0 2 Image Chart
1981 11 21 18 12.8 150.8 1000 0 2 Image Chart
1981 11 22 00 13.4 150.2 1002 0 2 Image Chart
1981 11 22 06 13.6 149.6 1000 0 2 Image Chart
1981 11 22 12 13.7 149.1 1000 0 2 Image Chart
1981 11 22 18 13.8 148.6 1000 0 2 Image Chart
1981 11 23 00 13.9 148.1 1000 35 3 Image Chart
1981 11 23 06 13.7 146.9 1002 40 3 Image Chart
1981 11 23 12 13.4 145.4 1002 35 3 Image Chart
1981 11 23 18 13.5 143.8 1002 35 3 Image Chart
1981 11 24 00 13.1 141.8 1002 35 3 Image Chart
1981 11 24 06 12.6 139.6 1002 0 2 Image Chart
1981 11 24 12 13.2 137.9 1004 0 2 Image Chart
1981 11 24 18 14.1 136.0 1002 0 2 Image Chart
1981 11 25 00 15.1 134.7 1004 0 2 Image Chart
1981 11 25 06 16.1 133.2 1002 0 2 Image Chart
1981 11 25 12 17.1 131.7 1004 0 2 Image Chart
1981 11 25 18 18.5 130.2 1002 0 2 Image Chart
1981 11 26 00 20.0 129.0 1002 0 2 Image Chart
1981 11 26 06 23.0 129.0 1004 0 2 Image Chart
Japan Meteorological Agency Best Track Data | Correction Date : 1992-10-21
< Typhoon 198126 1981 Season Typhoon 198128 >

Help